createdAt,value
2019-03-09T00:01:45.991Z,8.30
2019-03-09T00:06:38.109Z,8.30
2019-03-09T00:11:30.188Z,8.30
2019-03-09T00:16:22.817Z,8.40
2019-03-09T00:21:14.631Z,8.40
2019-03-09T00:26:06.339Z,8.30
2019-03-09T00:31:00.249Z,8.20
2019-03-09T00:35:52.890Z,8.10
2019-03-09T00:40:44.622Z,8.10
2019-03-09T00:45:36.364Z,7.90
2019-03-09T00:50:28.129Z,7.80
2019-03-09T00:55:20.240Z,7.70
2019-03-09T01:00:11.964Z,7.60
2019-03-09T01:05:04.107Z,7.50
2019-03-09T01:09:56.104Z,7.40
2019-03-09T01:14:48.631Z,7.30
2019-03-09T01:19:40.883Z,7.20
2019-03-09T01:24:32.862Z,7.20
2019-03-09T01:29:24.858Z,7.10
2019-03-09T01:34:16.907Z,7.10
2019-03-09T01:39:09.552Z,7.10
2019-03-09T01:44:01.381Z,7.10
2019-03-09T01:48:53.595Z,7.10
2019-03-09T01:53:45.505Z,7.10
2019-03-09T01:58:35.152Z,7.00
2019-03-09T02:03:27.121Z,6.90
2019-03-09T02:08:20.608Z,7.00
2019-03-09T02:13:10.458Z,7.00
2019-03-09T02:18:02.123Z,7.10
2019-03-09T02:22:54.078Z,7.10
2019-03-09T02:27:46.143Z,7.10
2019-03-09T02:32:38.103Z,7.10
2019-03-09T02:37:29.602Z,7.10
2019-03-09T02:42:21.597Z,7.10
2019-03-09T02:47:12.809Z,7.20
2019-03-09T02:52:04.581Z,7.20
2019-03-09T02:56:56.049Z,7.20
2019-03-09T03:01:47.966Z,7.20
2019-03-09T03:06:38.288Z,7.30
2019-03-09T03:11:30.630Z,7.40
2019-03-09T03:16:20.856Z,7.40
2019-03-09T03:21:12.929Z,7.50
2019-03-09T03:26:05.123Z,7.50
2019-03-09T03:30:57.338Z,7.60
2019-03-09T03:35:49.383Z,7.60
2019-03-09T03:40:41.406Z,7.60
2019-03-09T03:45:33.291Z,7.60
2019-03-09T03:50:25.359Z,7.70
2019-03-09T03:55:17.585Z,7.70
2019-03-09T04:00:09.743Z,7.70
2019-03-09T04:05:01.679Z,7.80
2019-03-09T04:09:53.810Z,7.80
2019-03-09T04:14:45.982Z,7.80
2019-03-09T04:19:37.963Z,7.80
2019-03-09T04:24:30.064Z,7.80
2019-03-09T04:29:22.147Z,7.80
2019-03-09T04:34:12.257Z,7.80
2019-03-09T04:39:04.090Z,7.80
2019-03-09T04:43:56.105Z,7.80
2019-03-09T04:48:47.887Z,7.90
2019-03-09T04:53:40.030Z,7.90
2019-03-09T04:58:31.856Z,8.00
2019-03-09T05:03:23.926Z,8.00
2019-03-09T05:08:15.839Z,8.00
2019-03-09T05:13:08.102Z,8.00
2019-03-09T05:17:58.307Z,8.10
2019-03-09T05:22:49.719Z,8.10
2019-03-09T05:27:39.800Z,8.00
2019-03-09T05:32:32.034Z,8.00
2019-03-09T05:37:22.278Z,8.00
2019-03-09T05:42:14.575Z,8.00
2019-03-09T05:47:04.883Z,8.00
2019-03-09T05:51:56.065Z,8.00
2019-03-09T05:56:45.929Z,8.00
2019-03-09T06:01:35.584Z,7.90
2019-03-09T06:06:25.639Z,8.00
2019-03-09T06:11:15.434Z,8.00
2019-03-09T06:16:05.795Z,8.00
2019-03-09T06:20:55.539Z,8.00
2019-03-09T06:25:47.111Z,8.10
2019-03-09T06:30:36.676Z,8.10
2019-03-09T06:35:26.393Z,8.20
2019-03-09T06:40:16.487Z,8.30
2019-03-09T06:45:06.444Z,8.30
2019-03-09T06:49:58.077Z,8.40
2019-03-09T06:54:49.859Z,8.50
2019-03-09T06:59:40.291Z,8.50
2019-03-09T07:04:32.383Z,8.60
2019-03-09T07:09:25.849Z,8.60
2019-03-09T07:14:18.648Z,8.60
2019-03-09T07:19:07.902Z,8.60
2019-03-09T07:23:57.835Z,8.70
2019-03-09T07:28:47.711Z,8.70
2019-03-09T07:33:38.119Z,8.70
2019-03-09T07:38:27.732Z,8.80
2019-03-09T07:43:17.523Z,8.90
2019-03-09T07:48:06.992Z,8.90
2019-03-09T07:52:59.072Z,8.90
2019-03-09T07:57:51.256Z,9.00
2019-03-09T08:02:41.370Z,9.00
2019-03-09T08:07:31.731Z,9.10
2019-03-09T08:12:25.014Z,9.10
2019-03-09T08:17:15.073Z,9.20
2019-03-09T08:22:05.806Z,9.30
2019-03-09T08:26:58.092Z,9.40
2019-03-09T08:31:50.351Z,9.40
2019-03-09T08:36:44.188Z,9.40
2019-03-09T08:41:35.778Z,9.50
2019-03-09T08:46:27.175Z,9.50
2019-03-09T08:51:17.920Z,9.60
2019-03-09T08:56:09.772Z,9.70
2019-03-09T09:00:59.257Z,9.80
2019-03-09T09:05:50.593Z,9.90
2019-03-09T09:10:42.597Z,10.00
2019-03-09T09:15:34.141Z,10.00
2019-03-09T09:20:26.377Z,10.10
2019-03-09T09:25:20.673Z,10.20
2019-03-09T09:30:12.513Z,10.10
2019-03-09T09:35:04.134Z,10.20
2019-03-09T09:39:56.237Z,10.30
2019-03-09T09:44:48.507Z,10.40
2019-03-09T09:49:40.910Z,10.50
2019-03-09T09:54:32.800Z,10.60
2019-03-09T09:59:27.361Z,10.70
2019-03-09T10:04:19.221Z,10.60
2019-03-09T10:09:11.345Z,10.60
2019-03-09T10:14:03.427Z,10.60
2019-03-09T10:18:55.481Z,10.50
2019-03-09T10:23:47.620Z,10.50
2019-03-09T10:28:39.512Z,10.40
2019-03-09T10:33:31.358Z,10.50
2019-03-09T10:38:23.187Z,10.40
2019-03-09T10:43:15.071Z,10.50
2019-03-09T10:48:07.306Z,10.50
2019-03-09T10:52:59.395Z,10.60
2019-03-09T10:57:51.743Z,10.70
2019-03-09T11:02:43.912Z,10.90
2019-03-09T11:07:36.065Z,10.90
2019-03-09T11:12:28.122Z,10.90
2019-03-09T11:17:22.630Z,11.00
2019-03-09T11:22:14.538Z,11.00
2019-03-09T11:27:06.763Z,11.10
2019-03-09T11:31:59.622Z,11.10
2019-03-09T11:36:51.794Z,11.10
2019-03-09T11:41:43.806Z,11.10
2019-03-09T11:46:38.108Z,11.20
2019-03-09T11:51:30.032Z,11.50
2019-03-09T11:56:22.411Z,11.70
2019-03-09T12:01:14.654Z,11.80
2019-03-09T12:06:07.150Z,12.00
2019-03-09T12:10:59.392Z,12.30
2019-03-09T12:15:51.953Z,12.60
2019-03-09T12:20:44.514Z,12.80
2019-03-09T12:25:36.781Z,12.90
2019-03-09T12:30:30.457Z,12.80
2019-03-09T12:35:22.382Z,12.80
2019-03-09T12:40:14.604Z,12.90
2019-03-09T12:45:06.787Z,13.10
2019-03-09T12:49:58.542Z,12.90
2019-03-09T12:54:50.388Z,12.70
2019-03-09T12:59:42.484Z,12.50
2019-03-09T13:04:34.437Z,12.40
2019-03-09T13:09:26.629Z,12.30
2019-03-09T13:14:18.774Z,12.30
2019-03-09T13:19:10.731Z,12.40
2019-03-09T13:24:03.207Z,12.30
2019-03-09T13:28:56.217Z,12.10
2019-03-09T13:33:47.874Z,11.90
2019-03-09T13:38:39.742Z,11.80
2019-03-09T13:43:31.051Z,11.50
2019-03-09T13:48:22.501Z,10.90
2019-03-09T13:53:14.530Z,10.60
2019-03-09T13:58:06.937Z,10.60
2019-03-09T14:02:59.114Z,10.80
2019-03-09T14:07:51.630Z,11.10
2019-03-09T14:12:44.311Z,11.30
2019-03-09T14:17:36.483Z,11.70
2019-03-09T14:22:28.601Z,11.90
2019-03-09T14:27:21.065Z,11.40
2019-03-09T14:32:12.578Z,10.60
2019-03-09T14:37:04.240Z,10.20
2019-03-09T14:41:56.048Z,9.90
2019-03-09T14:46:48.302Z,9.60
2019-03-09T14:51:40.122Z,9.50
2019-03-09T14:56:32.307Z,9.60
2019-03-09T15:01:24.458Z,9.80
2019-03-09T15:06:16.769Z,9.80
2019-03-09T15:11:08.758Z,9.90
2019-03-09T15:16:02.201Z,9.90
2019-03-09T15:20:53.781Z,9.80
2019-03-09T15:25:45.766Z,9.60
2019-03-09T15:30:39.789Z,9.30
2019-03-09T15:35:31.391Z,9.30
2019-03-09T15:40:23.354Z,9.40
2019-03-09T15:45:15.146Z,9.20
2019-03-09T15:50:06.478Z,8.40
2019-03-09T15:54:58.355Z,7.90
2019-03-09T15:59:50.275Z,7.80
2019-03-09T16:04:43.281Z,7.90
2019-03-09T16:09:35.226Z,8.10
2019-03-09T16:14:27.129Z,8.20
2019-03-09T16:19:20.525Z,8.10
2019-03-09T16:24:11.691Z,7.50
2019-03-09T16:29:03.464Z,6.80
2019-03-09T16:33:54.990Z,6.40
2019-03-09T16:38:46.842Z,6.40
2019-03-09T16:43:38.746Z,6.30
2019-03-09T16:48:30.562Z,6.40
2019-03-09T16:53:22.582Z,6.50
2019-03-09T16:58:14.509Z,6.60
2019-03-09T17:03:06.567Z,6.60
2019-03-09T17:07:58.650Z,6.70
2019-03-09T17:12:50.758Z,6.80
2019-03-09T17:17:42.785Z,6.80
2019-03-09T17:22:34.893Z,6.90
2019-03-09T17:27:27.184Z,6.90
2019-03-09T17:32:26.629Z,6.90
2019-03-09T17:37:16.900Z,7.00
2019-03-09T17:42:08.990Z,7.00
2019-03-09T17:47:00.852Z,7.10
2019-03-09T17:51:54.763Z,7.20
2019-03-09T17:56:48.462Z,7.20
2019-03-09T18:01:40.223Z,7.30
2019-03-09T18:06:32.126Z,7.30
2019-03-09T18:11:24.213Z,7.40
2019-03-09T18:16:16.203Z,7.60
2019-03-09T18:21:08.419Z,7.70
2019-03-09T18:26:00.176Z,7.80
2019-03-09T18:30:52.134Z,7.90
2019-03-09T18:35:44.315Z,8.00
2019-03-09T18:40:36.445Z,8.00
2019-03-09T18:45:28.166Z,8.00
2019-03-09T18:50:20.036Z,8.00
2019-03-09T18:55:12.103Z,8.10
2019-03-09T19:00:04.052Z,8.10
2019-03-09T19:04:55.934Z,8.10
2019-03-09T19:09:48.177Z,8.10
2019-03-09T19:14:42.211Z,8.00
2019-03-09T19:19:34.596Z,8.00
2019-03-09T19:24:26.188Z,8.10
2019-03-09T19:29:18.294Z,8.00
2019-03-09T19:34:14.453Z,8.10
2019-03-09T19:39:06.150Z,8.00
2019-03-09T19:43:58.132Z,8.00
2019-03-09T19:48:50.720Z,8.00
2019-03-09T19:53:42.423Z,8.00
2019-03-09T19:58:34.368Z,8.00
2019-03-09T20:03:27.644Z,8.00
2019-03-09T20:08:19.548Z,7.90
2019-03-09T20:13:11.681Z,7.90
2019-03-09T20:18:03.414Z,7.90
2019-03-09T20:22:55.529Z,7.90
2019-03-09T20:27:47.721Z,7.90
2019-03-09T20:32:39.944Z,7.90
2019-03-09T20:37:31.871Z,7.90
2019-03-09T20:42:23.754Z,7.90
2019-03-09T20:47:15.809Z,7.90
2019-03-09T20:52:08.080Z,7.90
2019-03-09T20:57:00.166Z,8.00
2019-03-09T21:01:52.971Z,8.10
2019-03-09T21:06:44.954Z,8.10
2019-03-09T21:11:37.128Z,8.10
2019-03-09T21:16:29.989Z,8.10
2019-03-09T21:21:22.125Z,8.10
2019-03-09T21:26:14.253Z,8.00
2019-03-09T21:31:06.298Z,8.00
2019-03-09T21:35:58.906Z,8.00
2019-03-09T21:40:50.739Z,8.10
2019-03-09T21:45:42.750Z,8.10
2019-03-09T21:50:35.116Z,8.10
2019-03-09T21:55:27.359Z,8.10
2019-03-09T22:00:19.429Z,8.10
2019-03-09T22:05:11.486Z,8.10
2019-03-09T22:10:03.703Z,8.10
2019-03-09T22:14:55.675Z,8.20
2019-03-09T22:19:47.944Z,8.30
2019-03-09T22:24:39.964Z,8.40
2019-03-09T22:29:31.989Z,8.40
2019-03-09T22:34:24.264Z,8.40
2019-03-09T22:39:16.170Z,8.50
2019-03-09T22:44:08.165Z,8.50
2019-03-09T22:49:00.432Z,8.50
2019-03-09T22:53:52.530Z,8.50
2019-03-09T22:58:45.066Z,8.50
2019-03-09T23:03:37.227Z,8.50
2019-03-09T23:08:29.639Z,8.60
2019-03-09T23:13:21.856Z,8.60
2019-03-09T23:18:14.314Z,8.70
2019-03-09T23:23:06.823Z,8.70
2019-03-09T23:27:58.774Z,8.60
2019-03-09T23:32:50.726Z,8.50
2019-03-09T23:37:44.802Z,8.50
2019-03-09T23:42:37.165Z,8.50
2019-03-09T23:47:32.082Z,8.40
2019-03-09T23:52:25.941Z,8.40
2019-03-09T23:57:17.715Z,8.50
